createdAt,value
2017-09-24T00:00:19.613Z,101661.14
2017-09-24T00:02:47.014Z,101662.07
2017-09-24T00:05:14.402Z,101660.49
2017-09-24T00:07:41.811Z,101654.40
2017-09-24T00:10:09.202Z,101656.22
2017-09-24T00:12:36.626Z,101646.81
2017-09-24T00:15:04.014Z,101650.50
2017-09-24T00:17:31.416Z,101657.39
2017-09-24T00:19:58.806Z,101660.45
2017-09-24T00:22:26.214Z,101661.27
2017-09-24T00:24:53.606Z,101662.16
2017-09-24T00:27:20.991Z,101657.53
2017-09-24T00:29:48.379Z,101659.98
2017-09-24T00:32:15.771Z,101661.98
2017-09-24T00:34:43.163Z,101660.84
2017-09-24T00:37:10.559Z,101658.30
2017-09-24T00:39:38.026Z,101660.69
2017-09-24T00:42:05.419Z,101652.31
2017-09-24T00:44:32.825Z,101650.30
2017-09-24T00:47:00.201Z,101657.75
2017-09-24T00:49:27.650Z,101652.62
2017-09-24T00:51:55.106Z,101658.97
2017-09-24T00:54:22.495Z,101655.66
2017-09-24T00:56:49.881Z,101652.48
2017-09-24T00:59:17.270Z,101652.62
2017-09-24T01:01:44.658Z,101646.42
2017-09-24T01:04:12.051Z,101643.27
2017-09-24T01:06:39.435Z,101642.45
2017-09-24T01:09:06.826Z,101640.90
2017-09-24T01:11:34.210Z,101635.92
2017-09-24T01:14:01.602Z,101635.17
2017-09-24T01:16:28.986Z,101639.65
2017-09-24T01:21:35.407Z,101641.03
2017-09-24T01:24:02.797Z,101643.13
2017-09-24T01:26:30.190Z,101644.36
2017-09-24T01:28:57.584Z,101632.77
2017-09-24T01:31:24.973Z,101629.99
2017-09-24T01:33:52.366Z,101624.56
2017-09-24T01:36:19.749Z,101623.13
2017-09-24T01:38:47.142Z,101632.56
2017-09-24T01:41:14.535Z,101630.90
2017-09-24T01:43:41.934Z,101635.11
2017-09-24T01:46:09.328Z,101636.25
2017-09-24T01:48:36.723Z,101636.61
2017-09-24T01:51:04.117Z,101633.09
2017-09-24T01:53:31.502Z,101640.13
2017-09-24T01:55:58.907Z,101646.52
2017-09-24T01:58:26.298Z,101648.38
2017-09-24T02:00:53.706Z,101642.75
2017-09-24T02:03:21.179Z,101635.00
2017-09-24T02:05:48.630Z,101631.52
2017-09-24T02:08:16.035Z,101623.37
2017-09-24T02:10:43.449Z,101626.91
2017-09-24T02:13:10.846Z,101622.84
2017-09-24T02:15:38.255Z,101625.58
2017-09-24T02:18:05.642Z,101625.56
2017-09-24T02:20:33.044Z,101625.11
2017-09-24T02:23:00.439Z,101627.13
2017-09-24T02:25:27.851Z,101620.02
2017-09-24T02:27:55.239Z,101622.02
2017-09-24T02:30:22.658Z,101617.67
2017-09-24T02:32:50.051Z,101620.44
2017-09-24T02:35:17.466Z,101623.56
2017-09-24T02:37:44.858Z,101622.98
2017-09-24T02:40:12.264Z,101629.00
2017-09-24T02:42:39.656Z,101627.57
2017-09-24T02:45:07.043Z,101612.22
2017-09-24T02:47:34.545Z,101609.34
2017-09-24T02:50:01.945Z,101607.86
2017-09-24T02:55:04.342Z,101606.06
2017-09-24T02:57:31.748Z,101606.72
2017-09-24T02:59:59.138Z,101604.16
2017-09-24T03:02:26.558Z,101607.36
2017-09-24T03:04:53.950Z,101605.66
2017-09-24T03:07:21.345Z,101601.80
2017-09-24T03:09:48.743Z,101606.81
2017-09-24T03:12:16.141Z,101602.70
2017-09-24T03:14:43.530Z,101607.26
2017-09-24T03:17:10.932Z,101602.52
2017-09-24T03:19:38.327Z,101606.02
2017-09-24T03:22:05.731Z,101602.08
2017-09-24T03:24:33.130Z,101598.33
2017-09-24T03:27:00.610Z,101598.28
2017-09-24T03:29:28.062Z,101601.36
2017-09-24T03:31:55.466Z,101602.56
2017-09-24T03:34:22.895Z,101596.65
2017-09-24T03:36:50.298Z,101600.33
2017-09-24T03:39:17.695Z,101608.13
2017-09-24T03:41:45.088Z,101609.76
2017-09-24T03:44:12.498Z,101616.03
2017-09-24T03:46:39.894Z,101623.59
2017-09-24T03:49:07.962Z,101620.45
2017-09-24T03:51:35.353Z,101626.55
2017-09-24T03:54:02.756Z,101624.98
2017-09-24T03:56:30.150Z,101617.49
2017-09-24T03:58:57.551Z,101617.36
2017-09-24T04:01:24.946Z,101616.80
2017-09-24T04:03:52.355Z,101614.49
2017-09-24T04:06:19.750Z,101611.08
2017-09-24T04:08:47.153Z,101618.16
2017-09-24T04:11:14.556Z,101622.16
2017-09-24T04:13:41.962Z,101625.54
2017-09-24T04:16:09.360Z,101624.95
2017-09-24T04:18:36.762Z,101626.72
2017-09-24T04:21:04.161Z,101631.23
2017-09-24T04:23:31.569Z,101637.02
2017-09-24T04:25:58.954Z,101630.03
2017-09-24T04:28:26.367Z,101632.09
2017-09-24T04:30:53.770Z,101629.47
2017-09-24T04:33:21.165Z,101628.35
2017-09-24T04:35:48.570Z,101635.72
2017-09-24T04:38:15.974Z,101634.27
2017-09-24T04:40:43.369Z,101636.61
2017-09-24T04:43:10.767Z,101638.62
2017-09-24T04:45:38.167Z,101636.08
2017-09-24T04:48:05.554Z,101634.09
2017-09-24T04:50:32.968Z,101632.70
2017-09-24T04:53:00.359Z,101633.09
2017-09-24T04:55:27.758Z,101638.11
2017-09-24T04:57:55.154Z,101643.55
2017-09-24T05:00:22.558Z,101638.38
2017-09-24T05:02:49.985Z,101641.05
2017-09-24T05:05:17.375Z,101646.95
2017-09-24T05:07:44.771Z,101644.14
2017-09-24T05:10:12.263Z,101641.15
2017-09-24T05:12:39.654Z,101639.02
2017-09-24T05:15:07.050Z,101630.75
2017-09-24T05:17:34.442Z,101636.33
2017-09-24T05:20:01.846Z,101631.97
2017-09-24T05:22:29.244Z,101636.39
2017-09-24T05:24:56.638Z,101627.70
2017-09-24T05:27:24.157Z,101639.66
2017-09-24T05:29:51.550Z,101633.73
2017-09-24T05:32:19.058Z,101633.16
2017-09-24T05:34:46.478Z,101631.34
2017-09-24T05:37:13.871Z,101635.67
2017-09-24T05:39:41.269Z,101638.86
2017-09-24T05:42:08.745Z,101640.61
2017-09-24T05:44:36.139Z,101641.16
2017-09-24T05:47:03.554Z,101638.92
2017-09-24T05:49:31.055Z,101643.70
2017-09-24T05:51:58.463Z,101637.95
2017-09-24T05:54:25.855Z,101631.68
2017-09-24T05:56:53.258Z,101634.65
2017-09-24T05:59:20.649Z,101633.84
2017-09-24T06:01:48.055Z,101627.68
2017-09-24T06:04:15.474Z,101624.80
2017-09-24T06:06:42.879Z,101622.91
2017-09-24T06:09:10.274Z,101621.38
2017-09-24T06:11:37.677Z,101632.57
2017-09-24T06:14:05.115Z,101628.34
2017-09-24T06:16:32.528Z,101633.32
2017-09-24T06:18:59.911Z,101632.67
2017-09-24T06:21:27.315Z,101637.61
2017-09-24T06:23:54.716Z,101638.88
2017-09-24T06:26:22.120Z,101641.67
2017-09-24T06:28:49.518Z,101638.39
2017-09-24T06:31:16.922Z,101642.23
2017-09-24T06:33:44.323Z,101639.73
2017-09-24T06:36:11.738Z,101636.48
2017-09-24T06:38:39.139Z,101640.66
2017-09-24T06:41:06.634Z,101639.43
2017-09-24T06:43:34.038Z,101646.20
2017-09-24T06:46:01.440Z,101646.56
2017-09-24T06:48:28.835Z,101644.42
2017-09-24T06:50:56.229Z,101647.23
2017-09-24T06:53:23.626Z,101649.41
2017-09-24T06:55:51.018Z,101642.47
2017-09-24T06:58:18.520Z,101649.14
2017-09-24T07:00:45.914Z,101652.95
2017-09-24T07:03:13.314Z,101651.85
2017-09-24T07:05:40.706Z,101664.49
2017-09-24T07:08:08.114Z,101652.40
2017-09-24T07:10:35.511Z,101656.80
2017-09-24T07:13:02.919Z,101654.27
2017-09-24T07:15:30.319Z,101662.22
2017-09-24T07:17:57.718Z,101660.25
2017-09-24T07:20:25.219Z,101656.92
2017-09-24T07:22:52.618Z,101667.78
2017-09-24T07:25:20.028Z,101668.36
2017-09-24T07:27:47.422Z,101666.91
2017-09-24T07:30:14.815Z,101665.61
2017-09-24T07:32:42.220Z,101671.11
2017-09-24T07:35:09.602Z,101672.20
2017-09-24T07:37:36.994Z,101676.61
2017-09-24T07:40:04.405Z,101677.30
2017-09-24T07:42:31.794Z,101673.14
2017-09-24T07:44:59.208Z,101676.67
2017-09-24T07:47:26.607Z,101675.16
2017-09-24T07:49:54.086Z,101672.75
2017-09-24T07:52:21.478Z,101682.91
2017-09-24T07:54:48.887Z,101681.48
2017-09-24T07:57:16.274Z,101691.73
2017-09-24T07:59:43.683Z,101691.79
2017-09-24T08:02:11.162Z,101690.03
2017-09-24T08:04:38.570Z,101687.91
2017-09-24T08:07:05.962Z,101693.72
2017-09-24T08:09:33.368Z,101694.36
2017-09-24T08:12:00.772Z,101691.13
2017-09-24T08:14:28.184Z,101685.53
2017-09-24T08:16:55.578Z,101692.52
2017-09-24T08:19:22.983Z,101687.52
2017-09-24T08:21:50.379Z,101690.52
2017-09-24T08:24:17.780Z,101688.23
2017-09-24T08:26:45.180Z,101684.87
2017-09-24T08:29:12.570Z,101684.97
2017-09-24T08:31:39.980Z,101681.31
2017-09-24T08:34:07.393Z,101674.39
2017-09-24T08:36:34.787Z,101671.84
2017-09-24T08:39:02.184Z,101675.09
2017-09-24T08:41:29.580Z,101673.95
2017-09-24T08:43:57.006Z,101675.52
2017-09-24T08:46:24.412Z,101679.16
2017-09-24T08:48:51.802Z,101676.58
2017-09-24T08:51:19.198Z,101681.32
2017-09-24T08:53:46.595Z,101681.23
2017-09-24T08:56:14.003Z,101681.90
2017-09-24T08:58:41.395Z,101678.69
2017-09-24T09:01:08.814Z,101680.73
2017-09-24T09:03:36.219Z,101683.05
2017-09-24T09:06:03.626Z,101680.58
2017-09-24T09:08:31.022Z,101679.78
2017-09-24T09:10:58.426Z,101674.88
2017-09-24T09:13:25.827Z,101675.37
2017-09-24T09:15:53.233Z,101674.23
2017-09-24T09:18:20.618Z,101676.46
2017-09-24T09:20:48.022Z,101682.86
2017-09-24T09:23:15.430Z,101681.47
2017-09-24T09:25:42.825Z,101674.08
2017-09-24T09:28:10.230Z,101674.89
2017-09-24T09:30:37.622Z,101677.99
2017-09-24T09:33:16.866Z,101677.09
2017-09-24T09:35:44.266Z,101673.08
2017-09-24T09:38:11.667Z,101677.56
2017-09-24T09:40:39.067Z,101669.46
2017-09-24T09:43:06.491Z,101674.75
2017-09-24T09:45:45.762Z,101671.14
2017-09-24T09:48:13.165Z,101671.01
2017-09-24T09:50:40.570Z,101667.06
2017-09-24T09:53:07.984Z,101668.63
2017-09-24T09:55:35.385Z,101671.36
2017-09-24T09:58:02.778Z,101675.11
2017-09-24T10:00:30.187Z,101666.94
2017-09-24T10:02:57.608Z,101674.58
2017-09-24T10:05:25.002Z,101675.95
2017-09-24T10:08:04.218Z,101668.69
2017-09-24T10:10:31.623Z,101668.95
2017-09-24T10:12:59.019Z,101670.19
2017-09-24T10:15:26.418Z,101669.04
2017-09-24T10:17:53.834Z,101668.50
2017-09-24T10:20:21.227Z,101669.04
2017-09-24T10:22:48.622Z,101671.33
2017-09-24T10:25:16.027Z,101666.56
2017-09-24T10:27:43.441Z,101661.09
2017-09-24T10:30:22.726Z,101664.59
2017-09-24T10:32:50.123Z,101665.08
2017-09-24T10:35:17.525Z,101659.55
2017-09-24T10:37:44.918Z,101660.88
2017-09-24T10:40:12.327Z,101660.82
2017-09-24T10:42:39.723Z,101657.80
2017-09-24T10:45:07.134Z,101659.66
2017-09-24T10:47:34.530Z,101659.70
2017-09-24T10:50:01.938Z,101657.04
2017-09-24T10:52:29.346Z,101660.34
2017-09-24T10:54:56.746Z,101665.69
2017-09-24T10:57:24.135Z,101662.52
2017-09-24T10:59:51.591Z,101663.87
2017-09-24T11:02:18.986Z,101664.73
2017-09-24T11:04:46.390Z,101662.80
2017-09-24T11:07:13.791Z,101661.48
2017-09-24T11:09:41.262Z,101662.72
2017-09-24T11:12:08.662Z,101666.61
2017-09-24T11:14:36.058Z,101660.56
2017-09-24T11:17:03.454Z,101661.38
2017-09-24T11:19:30.860Z,101665.67
2017-09-24T11:21:58.275Z,101663.81
2017-09-24T11:24:25.699Z,101668.02
2017-09-24T11:26:53.094Z,101669.41
2017-09-24T11:29:20.483Z,101675.45
2017-09-24T11:31:47.886Z,101674.03
2017-09-24T11:34:15.282Z,101670.02
2017-09-24T11:36:42.683Z,101668.69
2017-09-24T11:39:10.083Z,101670.16
2017-09-24T11:41:37.482Z,101671.45
2017-09-24T11:44:04.870Z,101672.04
2017-09-24T11:46:32.281Z,101666.45
2017-09-24T11:48:59.667Z,101673.90
2017-09-24T11:51:27.070Z,101669.53
2017-09-24T11:53:54.462Z,101671.17
2017-09-24T11:56:21.876Z,101669.38
2017-09-24T11:58:49.279Z,101674.30
2017-09-24T12:01:16.679Z,101673.09
2017-09-24T12:03:44.079Z,101670.13
2017-09-24T12:06:11.478Z,101671.34
2017-09-24T12:08:38.878Z,101667.88
2017-09-24T12:11:06.283Z,101669.29
2017-09-24T12:13:33.684Z,101672.84
2017-09-24T12:16:01.093Z,101677.00
2017-09-24T12:18:28.492Z,101676.72
2017-09-24T12:20:55.887Z,101680.23
2017-09-24T12:23:23.294Z,101676.89
2017-09-24T12:25:50.687Z,101680.02
2017-09-24T12:28:18.095Z,101677.97
2017-09-24T12:30:45.608Z,101673.16
2017-09-24T12:33:13.010Z,101678.27
2017-09-24T12:35:40.406Z,101678.69
2017-09-24T12:38:07.807Z,101676.51
2017-09-24T12:40:35.211Z,101668.48
2017-09-24T12:43:02.612Z,101679.01
2017-09-24T12:45:30.007Z,101677.46
2017-09-24T12:47:57.435Z,101679.61
2017-09-24T12:50:24.839Z,101674.57
2017-09-24T12:52:52.246Z,101673.42
2017-09-24T12:55:19.638Z,101675.06
2017-09-24T12:57:47.038Z,101673.54
2017-09-24T13:00:14.434Z,101673.84
2017-09-24T13:02:41.846Z,101677.60
2017-09-24T13:05:09.255Z,101669.47
2017-09-24T13:07:36.647Z,101670.55
2017-09-24T13:10:04.059Z,101673.45
2017-09-24T13:12:31.462Z,101672.28
2017-09-24T13:14:58.866Z,101669.05
2017-09-24T13:17:26.268Z,101667.85
2017-09-24T13:19:53.670Z,101665.06
2017-09-24T13:22:21.122Z,101673.09
2017-09-24T13:24:48.522Z,101671.10
2017-09-24T13:27:15.916Z,101674.03
2017-09-24T13:29:43.395Z,101669.42
2017-09-24T13:32:10.787Z,101673.72
2017-09-24T13:34:38.191Z,101673.37
2017-09-24T13:37:05.587Z,101671.11
2017-09-24T13:39:32.988Z,101670.94
2017-09-24T13:42:00.390Z,101674.13
2017-09-24T13:44:27.790Z,101670.19
2017-09-24T13:46:55.196Z,101665.67
2017-09-24T13:49:22.603Z,101666.78
2017-09-24T13:51:50.004Z,101662.09
2017-09-24T13:54:17.451Z,101662.99
2017-09-24T13:56:44.854Z,101662.58
2017-09-24T13:59:12.251Z,101661.48
2017-09-24T14:01:39.656Z,101649.87
2017-09-24T14:04:07.051Z,101657.25
2017-09-24T14:06:34.458Z,101650.08
2017-09-24T14:09:01.850Z,101651.16
2017-09-24T14:11:29.251Z,101652.53
2017-09-24T14:13:56.642Z,101654.69
2017-09-24T14:16:24.045Z,101651.94
2017-09-24T14:18:51.439Z,101652.47
2017-09-24T14:21:18.847Z,101648.05
2017-09-24T14:23:46.243Z,101657.45
2017-09-24T14:26:13.644Z,101662.84
2017-09-24T14:28:41.042Z,101667.56
2017-09-24T14:31:08.443Z,101665.39
2017-09-24T14:33:35.840Z,101667.98
2017-09-24T14:36:03.242Z,101669.02
2017-09-24T14:38:30.643Z,101662.31
2017-09-24T14:40:58.048Z,101661.37
2017-09-24T14:43:25.458Z,101656.14
2017-09-24T14:45:52.862Z,101659.30
2017-09-24T14:48:20.272Z,101659.88
2017-09-24T14:50:47.662Z,101661.68
2017-09-24T14:53:15.068Z,101659.14
2017-09-24T14:55:42.469Z,101650.66
2017-09-24T14:58:09.867Z,101655.33
2017-09-24T15:00:37.266Z,101652.12
2017-09-24T15:03:04.667Z,101652.05
2017-09-24T15:05:32.058Z,101656.84
2017-09-24T15:07:59.463Z,101650.98
2017-09-24T15:10:26.862Z,101655.64
2017-09-24T15:12:54.258Z,101653.20
2017-09-24T15:15:21.663Z,101650.83
2017-09-24T15:17:49.090Z,101646.47
2017-09-24T15:20:16.483Z,101654.08
2017-09-24T15:22:43.899Z,101658.48
2017-09-24T15:25:11.299Z,101656.72
2017-09-24T15:27:38.703Z,101653.16
2017-09-24T15:30:06.118Z,101647.55
2017-09-24T15:32:33.527Z,101648.41
2017-09-24T15:35:00.919Z,101652.45
2017-09-24T15:37:28.396Z,101652.32
2017-09-24T15:39:55.795Z,101660.03
2017-09-24T15:42:23.298Z,101663.39
2017-09-24T15:44:50.695Z,101659.87
2017-09-24T15:47:18.103Z,101656.36
2017-09-24T15:49:45.494Z,101656.78
2017-09-24T15:52:12.894Z,101660.07
2017-09-24T15:54:40.304Z,101662.66
2017-09-24T15:57:07.696Z,101660.59
2017-09-24T15:59:35.191Z,101667.41
2017-09-24T16:02:02.650Z,101658.93
2017-09-24T16:04:30.062Z,101663.80
2017-09-24T16:06:57.564Z,101667.08
2017-09-24T16:09:24.977Z,101666.89
2017-09-24T16:11:52.367Z,101670.31
2017-09-24T16:14:19.777Z,101674.36
2017-09-24T16:16:47.170Z,101674.18
2017-09-24T16:19:14.584Z,101669.31
2017-09-24T16:21:41.975Z,101671.09
2017-09-24T16:24:09.375Z,101673.77
2017-09-24T16:26:36.767Z,101676.59
2017-09-24T16:29:04.173Z,101680.78
2017-09-24T16:31:31.581Z,101675.83
2017-09-24T16:33:58.985Z,101678.38
2017-09-24T16:36:26.376Z,101677.03
2017-09-24T16:38:53.782Z,101681.56
2017-09-24T16:41:21.174Z,101679.44
2017-09-24T16:43:48.575Z,101681.14
2017-09-24T16:46:15.982Z,101683.83
2017-09-24T16:48:43.374Z,101677.00
2017-09-24T16:51:10.775Z,101683.31
2017-09-24T16:53:38.199Z,101689.87
2017-09-24T16:56:05.655Z,101686.61
2017-09-24T16:58:33.139Z,101690.70
2017-09-24T17:01:00.595Z,101687.77
2017-09-24T17:03:28.004Z,101689.18
2017-09-24T17:05:57.419Z,101688.91
2017-09-24T17:08:24.816Z,101694.23
2017-09-24T17:10:52.215Z,101684.23
2017-09-24T17:13:19.614Z,101694.59
2017-09-24T17:15:47.011Z,101691.73
2017-09-24T17:18:14.405Z,101697.23
2017-09-24T17:20:41.807Z,101698.91
2017-09-24T17:23:09.199Z,101695.08
2017-09-24T17:25:36.598Z,101704.39
2017-09-24T17:28:03.998Z,101705.42
2017-09-24T17:30:31.399Z,101702.95
2017-09-24T17:32:58.799Z,101709.94
2017-09-24T17:35:26.204Z,101710.46
2017-09-24T17:37:53.595Z,101711.27
2017-09-24T17:40:21.013Z,101714.85
2017-09-24T17:42:48.415Z,101712.56
2017-09-24T17:45:15.814Z,101708.48
2017-09-24T17:47:43.216Z,101708.73
2017-09-24T17:50:10.612Z,101712.30
2017-09-24T17:52:38.023Z,101715.24
2017-09-24T17:55:05.424Z,101719.53
2017-09-24T17:57:32.938Z,101715.11
2017-09-24T18:00:00.356Z,101722.03
2017-09-24T18:02:27.839Z,101717.78
2017-09-24T18:04:55.235Z,101722.73
2017-09-24T18:07:22.626Z,101721.48
2017-09-24T18:09:50.018Z,101725.00
2017-09-24T18:12:17.426Z,101719.30
2017-09-24T18:14:44.818Z,101715.98
2017-09-24T18:17:12.219Z,101726.98
2017-09-24T18:19:39.619Z,101726.10
2017-09-24T18:22:07.022Z,101725.61
2017-09-24T18:24:34.432Z,101728.25
2017-09-24T18:27:01.843Z,101717.72
2017-09-24T18:29:29.235Z,101719.98
2017-09-24T18:31:56.638Z,101716.66
2017-09-24T18:34:24.054Z,101716.10
2017-09-24T18:36:51.467Z,101716.53
2017-09-24T18:39:18.970Z,101716.34
2017-09-24T18:41:46.368Z,101715.75
2017-09-24T18:44:13.786Z,101717.97
2017-09-24T18:46:41.188Z,101720.17
2017-09-24T18:49:08.613Z,101722.99
2017-09-24T18:51:36.006Z,101717.48
2017-09-24T18:54:03.510Z,101719.58
2017-09-24T18:56:30.962Z,101721.11
2017-09-24T18:58:58.362Z,101719.91
2017-09-24T19:01:25.759Z,101729.58
2017-09-24T19:03:53.159Z,101737.83
2017-09-24T19:06:20.554Z,101737.47
2017-09-24T19:08:47.959Z,101740.33
2017-09-24T19:11:15.347Z,101739.01
2017-09-24T19:13:42.854Z,101732.33
2017-09-24T19:16:10.328Z,101731.41
2017-09-24T19:18:37.770Z,101731.08
2017-09-24T19:21:05.170Z,101733.19
2017-09-24T19:23:32.562Z,101729.12
2017-09-24T19:25:59.962Z,101735.47
2017-09-24T19:28:27.367Z,101739.16
2017-09-24T19:30:54.774Z,101738.59
2017-09-24T19:33:22.179Z,101743.75
2017-09-24T19:35:49.579Z,101745.69
2017-09-24T19:38:16.981Z,101744.02
2017-09-24T19:40:44.483Z,101744.17
2017-09-24T19:43:11.875Z,101745.30
2017-09-24T19:45:39.284Z,101745.05
2017-09-24T19:48:06.679Z,101739.39
2017-09-24T19:50:34.082Z,101740.96
2017-09-24T19:53:01.466Z,101743.32
2017-09-24T19:55:28.879Z,101742.80
2017-09-24T19:57:56.279Z,101745.89
2017-09-24T20:00:23.686Z,101750.08
2017-09-24T20:02:51.086Z,101750.61
2017-09-24T20:05:18.478Z,101747.87
2017-09-24T20:07:45.875Z,101756.88
2017-09-24T20:10:13.279Z,101755.13
2017-09-24T20:12:40.674Z,101760.85
2017-09-24T20:15:08.078Z,101758.59
2017-09-24T20:17:35.479Z,101762.39
2017-09-24T20:20:02.975Z,101757.27
2017-09-24T20:22:30.387Z,101757.72
2017-09-24T20:24:57.784Z,101759.39
2017-09-24T20:27:25.184Z,101749.16
2017-09-24T20:29:52.692Z,101758.09
2017-09-24T20:32:20.088Z,101761.62
2017-09-24T20:34:47.486Z,101765.53
2017-09-24T20:37:14.897Z,101760.17
2017-09-24T20:39:42.318Z,101760.47
2017-09-24T20:42:09.710Z,101765.79
2017-09-24T20:44:37.102Z,101769.55
2017-09-24T20:47:04.507Z,101765.09
2017-09-24T20:49:31.903Z,101770.08
2017-09-24T20:51:59.307Z,101771.19
2017-09-24T20:54:26.704Z,101768.54
2017-09-24T20:56:54.198Z,101772.27
2017-09-24T20:59:21.599Z,101773.83
2017-09-24T21:01:49.078Z,101771.31
2017-09-24T21:04:16.481Z,101776.08
2017-09-24T21:06:43.875Z,101768.14
2017-09-24T21:09:11.273Z,101771.02
2017-09-24T21:11:38.670Z,101775.47
2017-09-24T21:14:06.067Z,101774.72
2017-09-24T21:16:33.466Z,101776.90
2017-09-24T21:19:00.851Z,101771.80
2017-09-24T21:21:28.268Z,101776.70
2017-09-24T21:23:55.726Z,101773.20
2017-09-24T21:26:23.132Z,101767.98
2017-09-24T21:28:50.622Z,101769.27
2017-09-24T21:31:18.040Z,101771.50
2017-09-24T21:33:45.439Z,101774.02
2017-09-24T21:36:12.835Z,101775.00
2017-09-24T21:38:40.238Z,101774.17
2017-09-24T21:41:07.634Z,101771.18
2017-09-24T21:43:35.059Z,101772.75
2017-09-24T21:46:02.455Z,101767.91
2017-09-24T21:48:29.869Z,101774.00
2017-09-24T21:50:57.270Z,101772.76
2017-09-24T21:53:24.680Z,101768.60
2017-09-24T21:55:52.139Z,101769.17
2017-09-24T21:58:19.542Z,101771.22
2017-09-24T22:00:47.051Z,101773.05
2017-09-24T22:03:14.470Z,101769.00
2017-09-24T22:05:41.963Z,101767.56
2017-09-24T22:08:09.363Z,101762.40
2017-09-24T22:10:36.755Z,101764.81
2017-09-24T22:13:04.155Z,101760.11
2017-09-24T22:15:31.555Z,101766.09
2017-09-24T22:17:58.958Z,101767.64
2017-09-24T22:20:26.360Z,101767.51
2017-09-24T22:22:53.762Z,101761.59
2017-09-24T22:25:21.158Z,101767.14
2017-09-24T22:27:48.632Z,101765.80
2017-09-24T22:30:16.035Z,101760.42
2017-09-24T22:32:43.434Z,101762.64
2017-09-24T22:35:10.835Z,101758.61
2017-09-24T22:37:38.247Z,101756.64
2017-09-24T22:40:05.651Z,101752.78
2017-09-24T22:42:33.043Z,101752.16
2017-09-24T22:45:00.447Z,101760.43
2017-09-24T22:47:27.842Z,101762.02
2017-09-24T22:49:55.243Z,101760.58
2017-09-24T22:52:22.642Z,101756.28
2017-09-24T22:54:50.038Z,101757.64
2017-09-24T22:57:17.446Z,101755.91
2017-09-24T22:59:44.855Z,101754.40
2017-09-24T23:02:12.256Z,101755.52
2017-09-24T23:04:39.760Z,101758.37
2017-09-24T23:07:07.150Z,101757.14
2017-09-24T23:09:34.559Z,101755.59
2017-09-24T23:12:01.984Z,101755.78
2017-09-24T23:14:29.383Z,101752.80
2017-09-24T23:16:56.778Z,101746.81
2017-09-24T23:19:24.187Z,101747.50
2017-09-24T23:21:51.590Z,101744.48
2017-09-24T23:24:18.997Z,101744.64
2017-09-24T23:26:46.392Z,101749.69
2017-09-24T23:29:13.834Z,101753.07
2017-09-24T23:31:41.238Z,101749.11
2017-09-24T23:34:08.640Z,101747.55
2017-09-24T23:36:36.038Z,101737.38
2017-09-24T23:39:03.454Z,101732.77
2017-09-24T23:41:30.863Z,101741.57
2017-09-24T23:43:58.263Z,101729.72
2017-09-24T23:46:25.667Z,101735.20
2017-09-24T23:48:53.075Z,101728.89
2017-09-24T23:51:20.471Z,101723.74
2017-09-24T23:53:47.874Z,101720.45
2017-09-24T23:56:15.278Z,101716.58
2017-09-24T23:58:42.670Z,101726.41
